Avioradar koristi kolačiće da bi Vam omogućio jednostavnije i ugodnije korištenje stranice. 

AVIORADAR - Hrvatski zrakoplovni portal

METAR & TAF

[Source: ADDS]
METAR
LDZA 270630Z 00000KT 9999 3500NE R22/1300U BCFG FEW001 08/08 Q1007 BECMG CAVOK =
LDZA 270525Z 2706/2806 06006KT 9999 FEW015 SCT045 TX16/2712Z TN06/2706Z PROB30 TEMPO 2706/2708 1500 BCFG BKN004 BECMG 2717/2719 06012KT RA PROB30 TEMPO 2719/2803 06018G30KT 2000 +TSRA BKN008 FEW020CB OVC025 BECMG 2801/2803 08008KT NSW TEMPO 2803/2806 1500 BCFG BKN002 PROB30 2803/2806 VRB02KT 0100 FG VV001 LDSP 270630Z 05007KT 9999 FEW025 SCT045 14/10 Q1006 NOSIG =
LDSP 270525Z 2706/2806 07007KT 9999 SCT045 TX21/2717Z TN15/2805Z PROB30 TEMPO 2706/2716 TSRA FEW030CB BECMG 2710/2712 11015KT PROB40 TEMPO 2715/2723 12025G35KT 1500 +TSRA SCT020CB BKN035 BECMG 2723/2801 20015KT BECMG 2803/2805 34008KT PROB30 TEMPO 2803/2806 30015G25KT -TSRA FEW030CB LDDU 270630Z 05004KT 340V150 9999 SCT033 BKN050 13/11 Q1007 NOSIG =
LDDU 270525Z 2706/2806 11010KT 9999 SCT040 TX21/2713Z TN14/2706Z PROB40 TEMPO 2706/2715 VRB15KT TSRA FEW020CB BKN030 BECMG 2711/2713 12015G25KT TEMPO 2715/2801 12025G38KT 4000 TSRA BKN012 FEW020CB BKN030 PROB30 TEMPO 2721/2800 1500 +TSRA BKN004 SCT020CB BKN030 BECMG 2800/2802 12008KT LDPL 270630Z 11007KT 090V150 9999 FEW020 13/09 Q1005 NOSIG =
LDPL 270525Z 2706/2806 08007KT 9999 SCT030 TX16/2712Z TN11/2803Z PROB30 TEMPO 2706/2806 VRB20G30KT TSRA FEW020CB BKN030 BECMG 2711/2713 09012KT BECMG 2715/2717 RA PROB40 TEMPO 2715/2800 2000 +RA BKN008 OVC020 BECMG 2800/2802 24012KT -RA LDZD 270630Z 31003KT 260V010 9999 FEW030 BKN040 12/08 Q1006 NOSIG =
COR LDZD 270536Z 2706/2806 12005KT 9999 SCT030 TX18/2713Z TN10/2803Z BECMG 2708/2710 12012KT TEMPO 2710/2806 4000 TSRA FEW020CB BKN030 TEMPO 2716/2723 12022G35KT PROB30 TEMPO 2718/2800 1500 +TSRA BKN008 SCT020CB BKN030 BECMG 2723/2801 24012KT LDRI 270630Z 29003KT 260V360 9999 FEW047 13/09 Q1005 =
LDRI 270525Z 2706/2806 10006KT 9999 SCT030 TX17/2713Z TN11/2803Z BECMG 2716/2718 12010KT RA PROB40 TEMPO 2716/2800 07022G35KT PROB40 TEMPO 2720/2803 2000 +RA BKN010 OVC020 PROB30 TEMPO 2800/2806 VRB20G30KT TSRA FEW030CB BKN040 LDOS 270630Z 09006KT 9999 SCT047 11/07 Q1007 =
LDOS 270525Z 2706/2806 11006KT 9999 SCT040 TX17/2713Z TN11/2706Z BECMG 2716/2718 13014KT PROB40 TEMPO 2718/2806 13018G28KT PROB30 TEMPO 2801/2805 SHRA FEW030TCU BKN035
TAF
LDZA 270525Z 2706/2806 06006KT 9999 FEW015 SCT045 TX16/2712Z TN06/2706Z PROB30 TEMPO 2706/2708 1500 BCFG BKN004 BECMG 2717/2719 06012KT RA PROB30 TEMPO 2719/2803 06018G30KT 2000 +TSRA BKN008 FEW020CB OVC025 BECMG 2801/2803 08008KT NSW TEMPO 2803/2806 1500 BCFG BKN002 PROB30 2803/2806 VRB02KT 0100 FG VV001 =
LDSP 270525Z 2706/2806 07007KT 9999 SCT045 TX21/2717Z TN15/2805Z PROB30 TEMPO 2706/2716 TSRA FEW030CB BECMG 2710/2712 11015KT PROB40 TEMPO 2715/2723 12025G35KT 1500 +TSRA SCT020CB BKN035 BECMG 2723/2801 20015KT BECMG 2803/2805 34008KT PROB30 TEMPO 2803/2806 30015G25KT -TSRA FEW030CB =
LDDU 270525Z 2706/2806 11010KT 9999 SCT040 TX21/2713Z TN14/2706Z PROB40 TEMPO 2706/2715 VRB15KT TSRA FEW020CB BKN030 BECMG 2711/2713 12015G25KT TEMPO 2715/2801 12025G38KT 4000 TSRA BKN012 FEW020CB BKN030 PROB30 TEMPO 2721/2800 1500 +TSRA BKN004 SCT020CB BKN030 BECMG 2800/2802 12008KT =
LDPL 270525Z 2706/2806 08007KT 9999 SCT030 TX16/2712Z TN11/2803Z PROB30 TEMPO 2706/2806 VRB20G30KT TSRA FEW020CB BKN030 BECMG 2711/2713 09012KT BECMG 2715/2717 RA PROB40 TEMPO 2715/2800 2000 +RA BKN008 OVC020 BECMG 2800/2802 24012KT -RA =
COR LDZD 270536Z 2706/2806 12005KT 9999 SCT030 TX18/2713Z TN10/2803Z BECMG 2708/2710 12012KT TEMPO 2710/2806 4000 TSRA FEW020CB BKN030 TEMPO 2716/2723 12022G35KT PROB30 TEMPO 2718/2800 1500 +TSRA BKN008 SCT020CB BKN030 BECMG 2723/2801 24012KT =
LDRI 270525Z 2706/2806 10006KT 9999 SCT030 TX17/2713Z TN11/2803Z BECMG 2716/2718 12010KT RA PROB40 TEMPO 2716/2800 07022G35KT PROB40 TEMPO 2720/2803 2000 +RA BKN010 OVC020 PROB30 TEMPO 2800/2806 VRB20G30KT TSRA FEW030CB BKN040 =
LDOS 270525Z 2706/2806 11006KT 9999 SCT040 TX17/2713Z TN11/2706Z BECMG 2716/2718 13014KT PROB40 TEMPO 2718/2806 13018G28KT PROB30 TEMPO 2801/2805 SHRA FEW030TCU BKN035 =
SR / SS: 04:50 / 16:42 UTC (Zagreb 2020-09-27)